Time;durP1;ratioP1;P1;durP2;ratioP2;P2;SDS_P1;SDS_P2;PMS_P1;PMS_P2;Temp;Humidity;BMP_temperature;BMP_pressure;BME280_temperature;BME280_humidity;BME280_pressure;Samples;Min_cycle;Max_cycle;Signal;HPM_P1;HPM_P2
2022/04/07 00:00:20;;;;;;;26.98;15.73;;;;;;;;;;4996304;28;20466;-64
2022/04/07 00:02:46;;;;;;;27.35;14.15;;;;;;;;;;4996143;28;20109;-63
2022/04/07 00:05:11;;;;;;;56.17;35.05;;;;;;;;;;4996535;28;20102;-63
2022/04/07 00:07:37;;;;;;;21.58;12.63;;;;;;;;;;4996257;28;20466;-63
2022/04/07 00:10:03;;;;;;;21.52;12.48;;;;;;;;;;4996682;28;20022;-63
2022/04/07 00:12:29;;;;;;;21.77;12.02;;;;;;;;;;4996747;28;20117;-63
2022/04/07 00:14:54;;;;;;;17.30;11.35;;;;;;;;;;4996463;28;20421;-62
2022/04/07 00:17:20;;;;;;;19.27;11.15;;;;;;;;;;4978991;28;20041;-64
2022/04/07 00:19:45;;;;;;;18.38;11.52;;;;;;;;;;4996249;28;20030;-63
2022/04/07 00:22:11;;;;;;;22.15;13.18;;;;;;;;;;4978590;28;20026;-62
2022/04/07 00:24:36;;;;;;;17.73;11.20;;;;;;;;;;4975307;28;20043;-62
2022/04/07 00:27:02;;;;;;;22.20;13.15;;;;;;;;;;4986383;23;20055;-63
2022/04/07 00:29:27;;;;;;;28.80;14.70;;;;;;;;;;4958377;28;20398;-61
2022/04/07 00:31:57;;;;;;;28.80;14.48;;;;;;;;;;4975561;28;20035;-63
2022/04/07 00:34:23;;;;;;;29.25;15.70;;;;;;;;;;4976891;28;20027;-64
2022/04/07 00:36:48;;;;;;;28.33;15.23;;;;;;;;;;4959093;28;20117;-62
2022/04/07 00:39:13;;;;;;;25.40;14.43;;;;;;;;;;4959615;28;20051;-62
2022/04/07 00:41:39;;;;;;;28.75;14.93;;;;;;;;;;4974087;28;20022;-64
2022/04/07 00:44:08;;;;;;;26.23;14.00;;;;;;;;;;4974464;28;20198;-63
2022/04/07 00:46:34;;;;;;;23.63;12.85;;;;;;;;;;4974603;28;20383;-63
2022/04/07 00:48:59;;;;;;;13.75;9.23;;;;;;;;;;4974370;28;20050;-62
2022/04/07 00:51:25;;;;;;;20.80;11.55;;;;;;;;;;4974319;28;20101;-63
2022/04/07 00:53:50;;;;;;;20.75;12.15;;;;;;;;;;4974295;28;20497;-63
2022/04/07 00:56:16;;;;;;;20.73;11.20;;;;;;;;;;4975087;28;20106;-62
2022/04/07 00:58:42;;;;;;;17.70;11.77;;;;;;;;;;4975642;28;20031;-62
2022/04/07 01:01:08;;;;;;;16.88;9.50;;;;;;;;;;4976118;28;20042;-63
2022/04/07 01:03:52;;;;;;;17.23;10.90;;;;;;;;;;4975781;28;20459;-63
2022/04/07 01:06:18;;;;;;;12.65;8.40;;;;;;;;;;4975841;28;20034;-62
2022/04/07 01:08:43;;;;;;;10.13;7.25;;;;;;;;;;4958717;28;20023;-62
2022/04/07 01:11:09;;;;;;;11.32;7.47;;;;;;;;;;4975898;28;20044;-63
2022/04/07 01:13:43;;;;;;;12.57;8.07;;;;;;;;;;4975472;28;20199;-63
2022/04/07 01:16:08;;;;;;;12.45;8.32;;;;;;;;;;4958551;28;20043;-63
2022/04/07 01:18:34;;;;;;;16.05;10.18;;;;;;;;;;4958347;28;20038;-64
2022/04/07 01:20:59;;;;;;;24.33;12.52;;;;;;;;;;4958162;28;20030;-64
2022/04/07 01:23:26;;;;;;;17.42;10.13;;;;;;;;;;4975444;28;20031;-63
2022/04/07 01:25:52;;;;;;;14.52;9.15;;;;;;;;;;4975661;28;20035;-63
2022/04/07 01:28:17;;;;;;;13.32;9.57;;;;;;;;;;4975224;28;20050;-63
2022/04/07 01:30:43;;;;;;;17.90;10.48;;;;;;;;;;4958065;28;20057;-63
2022/04/07 01:33:09;;;;;;;13.82;9.50;;;;;;;;;;4975361;28;20386;-62
2022/04/07 01:35:35;;;;;;;13.05;8.32;;;;;;;;;;4957986;28;20117;-63
2022/04/07 01:38:01;;;;;;;11.40;7.93;;;;;;;;;;4975777;28;20408;-63
2022/04/07 01:40:29;;;;;;;14.10;9.02;;;;;;;;;;4975074;28;20035;-63
2022/04/07 01:42:55;;;;;;;11.88;7.55;;;;;;;;;;4975170;28;20015;-63
2022/04/07 01:45:21;;;;;;;25.15;12.05;;;;;;;;;;4975433;28;20042;-64
2022/04/07 01:47:47;;;;;;;21.77;12.50;;;;;;;;;;4975273;28;20023;-64
2022/04/07 01:50:15;;;;;;;25.13;14.02;;;;;;;;;;4975631;28;20461;-65
2022/04/07 01:52:45;;;;;;;17.98;13.05;;;;;;;;;;4975252;28;20031;-63
2022/04/07 01:55:11;;;;;;;14.80;10.70;;;;;;;;;;4974999;28;20054;-62
2022/04/07 01:57:37;;;;;;;13.35;9.25;;;;;;;;;;4974888;28;20478;-64
2022/04/07 02:00:04;;;;;;;15.23;10.20;;;;;;;;;;4974911;28;20035;-64
2022/04/07 02:02:37;;;;;;;17.17;10.35;;;;;;;;;;4975600;28;20434;-64
2022/04/07 02:05:08;;;;;;;18.73;10.88;;;;;;;;;;4974853;28;20030;-64
2022/04/07 02:07:34;;;;;;;16.80;11.13;;;;;;;;;;4975156;28;20486;-65
2022/04/07 02:09:59;;;;;;;17.88;11.13;;;;;;;;;;4975086;28;20027;-65
2022/04/07 02:12:27;;;;;;;16.42;9.73;;;;;;;;;;4974751;28;20033;-64
2022/04/07 02:14:53;;;;;;;13.95;8.80;;;;;;;;;;4975316;28;20034;-65
2022/04/07 02:17:20;;;;;;;13.23;9.00;;;;;;;;;;4975275;28;20451;-64
2022/04/07 02:19:52;;;;;;;14.38;9.20;;;;;;;;;;4974600;28;20133;-64
2022/04/07 02:22:18;;;;;;;12.55;7.93;;;;;;;;;;4974884;28;20077;-63
2022/04/07 02:24:44;;;;;;;9.25;6.50;;;;;;;;;;4974762;28;20042;-63
2022/04/07 02:27:10;;;;;;;10.02;7.20;;;;;;;;;;4976798;28;20078;-64
2022/04/07 02:29:35;;;;;;;23.90;13.75;;;;;;;;;;4978686;28;20069;-65
2022/04/07 02:32:02;;;;;;;13.50;8.60;;;;;;;;;;4961536;28;20078;-64
2022/04/07 02:34:27;;;;;;;11.77;8.25;;;;;;;;;;4961732;28;20034;-64
2022/04/07 02:36:53;;;;;;;11.63;8.20;;;;;;;;;;4961100;28;20043;-65
2022/04/07 02:39:18;;;;;;;13.55;8.65;;;;;;;;;;4960975;28;20054;-63
2022/04/07 02:41:44;;;;;;;12.00;8.35;;;;;;;;;;4961859;28;20057;-65
2022/04/07 02:44:09;;;;;;;13.43;8.40;;;;;;;;;;4978466;28;20481;-64
2022/04/07 02:46:35;;;;;;;11.65;7.97;;;;;;;;;;4960961;28;20031;-65
2022/04/07 02:49:00;;;;;;;14.57;8.65;;;;;;;;;;4978426;28;20031;-65
2022/04/07 02:51:26;;;;;;;19.73;11.32;;;;;;;;;;4978443;28;20034;-62
2022/04/07 02:53:57;;;;;;;18.52;11.40;;;;;;;;;;4978576;28;20014;-64
2022/04/07 02:56:23;;;;;;;19.20;11.02;;;;;;;;;;4978349;28;20509;-64
2022/04/07 02:58:48;;;;;;;17.30;10.45;;;;;;;;;;4978604;28;20055;-64
2022/04/07 03:01:15;;;;;;;13.07;8.60;;;;;;;;;;4978048;28;20475;-64
2022/04/07 03:03:41;;;;;;;14.88;9.40;;;;;;;;;;4978152;28;20011;-65
2022/04/07 03:06:06;;;;;;;13.20;8.60;;;;;;;;;;4978666;28;20030;-64
2022/04/07 03:08:33;;;;;;;16.98;10.32;;;;;;;;;;4977906;28;20430;-65
2022/04/07 03:11:00;;;;;;;17.50;10.50;;;;;;;;;;4978646;28;20038;-64
2022/04/07 03:13:25;;;;;;;17.40;11.30;;;;;;;;;;4978023;28;20035;-65
2022/04/07 03:15:50;;;;;;;20.92;12.98;;;;;;;;;;4977817;28;20455;-65
2022/04/07 03:18:16;;;;;;;24.17;14.05;;;;;;;;;;4977853;28;20105;-65
2022/04/07 03:20:41;;;;;;;21.00;13.13;;;;;;;;;;4977921;28;20118;-65
2022/04/07 03:23:06;;;;;;;17.27;11.23;;;;;;;;;;4978165;28;20030;-64
2022/04/07 03:25:32;;;;;;;22.10;11.40;;;;;;;;;;4978011;28;20078;-65
2022/04/07 03:27:57;;;;;;;24.10;12.02;;;;;;;;;;4977500;28;20578;-65
2022/04/07 03:30:23;;;;;;;20.52;12.90;;;;;;;;;;4977612;28;20035;-65
2022/04/07 03:32:49;;;;;;;15.88;11.27;;;;;;;;;;4977678;28;20451;-64
2022/04/07 03:35:14;;;;;;;16.88;10.43;;;;;;;;;;4977476;28;20390;-65
2022/04/07 03:37:40;;;;;;;16.88;9.75;;;;;;;;;;4976393;28;20430;-63
2022/04/07 03:40:05;;;;;;;16.58;10.30;;;;;;;;;;4977330;28;20038;-65
2022/04/07 03:42:31;;;;;;;17.48;9.73;;;;;;;;;;4977233;28;20601;-65
2022/04/07 03:44:57;;;;;;;19.80;11.07;;;;;;;;;;4960267;28;20027;-64
2022/04/07 03:47:22;;;;;;;22.77;12.20;;;;;;;;;;4977045;28;20383;-65
2022/04/07 03:49:48;;;;;;;26.52;14.90;;;;;;;;;;4976421;28;20631;-64
2022/04/07 03:52:15;;;;;;;19.65;12.45;;;;;;;;;;4976234;28;20054;-64
2022/04/07 03:54:40;;;;;;;19.83;11.23;;;;;;;;;;4976265;28;20038;-64
2022/04/07 03:57:06;;;;;;;15.98;11.10;;;;;;;;;;4976241;28;20023;-65
2022/04/07 03:59:37;;;;;;;19.40;13.35;;;;;;;;;;4976092;28;20043;-65
2022/04/07 04:02:05;;;;;;;24.90;14.63;;;;;;;;;;4976895;28;20035;-65
2022/04/07 04:04:30;;;;;;;25.60;18.08;;;;;;;;;;4977099;28;20019;-65
2022/04/07 04:06:55;;;;;;;25.10;17.92;;;;;;;;;;4976851;28;20062;-64
2022/04/07 04:09:21;;;;;;;23.17;16.40;;;;;;;;;;4976911;28;20021;-64
2022/04/07 04:11:46;;;;;;;25.48;17.10;;;;;;;;;;4976996;28;20035;-64
2022/04/07 04:14:11;;;;;;;25.08;15.60;;;;;;;;;;4960026;28;20027;-65
2022/04/07 04:16:37;;;;;;;28.83;15.82;;;;;;;;;;4976733;28;20039;-65
2022/04/07 04:19:02;;;;;;;23.67;14.10;;;;;;;;;;4976761;28;20035;-64
2022/04/07 04:21:28;;;;;;;21.10;13.85;;;;;;;;;;4976442;28;20033;-65
2022/04/07 04:23:53;;;;;;;24.15;15.00;;;;;;;;;;4975458;28;20467;-65
2022/04/07 04:26:19;;;;;;;23.67;13.43;;;;;;;;;;4975482;28;20042;-66
2022/04/07 04:28:44;;;;;;;23.30;13.77;;;;;;;;;;4959289;28;20034;-65
2022/04/07 04:31:09;;;;;;;25.02;13.90;;;;;;;;;;4977148;28;20341;-64
2022/04/07 04:33:35;;;;;;;21.90;12.98;;;;;;;;;;4976566;28;20038;-65
2022/04/07 04:36:00;;;;;;;29.52;14.10;;;;;;;;;;4975616;28;20026;-65
2022/04/07 04:38:25;;;;;;;33.55;16.90;;;;;;;;;;4975464;28;20038;-65
2022/04/07 04:40:52;;;;;;;37.42;17.80;;;;;;;;;;4975220;28;20037;-65
2022/04/07 04:43:17;;;;;;;42.20;19.63;;;;;;;;;;4975351;28;20131;-64
2022/04/07 04:45:42;;;;;;;35.90;17.83;;;;;;;;;;4957966;28;20463;-65
2022/04/07 04:48:08;;;;;;;44.60;21.27;;;;;;;;;;4975142;28;20449;-64
2022/04/07 04:50:34;;;;;;;49.42;24.08;;;;;;;;;;4975246;28;20026;-64
2022/04/07 04:52:59;;;;;;;61.33;27.88;;;;;;;;;;4975997;28;20046;-64
2022/04/07 04:55:24;;;;;;;55.60;26.48;;;;;;;;;;4976509;28;20034;-64
2022/04/07 04:57:50;;;;;;;46.50;23.05;;;;;;;;;;4976120;28;20077;-65
2022/04/07 05:00:15;;;;;;;54.40;26.45;;;;;;;;;;4975812;28;20038;-64
2022/04/07 05:02:41;;;;;;;46.70;22.67;;;;;;;;;;4976083;28;20494;-64
2022/04/07 05:05:06;;;;;;;54.28;26.65;;;;;;;;;;4975780;28;20375;-64
2022/04/07 05:07:32;;;;;;;54.03;25.73;;;;;;;;;;4958441;28;20118;-63
2022/04/07 05:09:57;;;;;;;54.60;26.38;;;;;;;;;;4976404;28;20078;-64
2022/04/07 05:12:23;;;;;;;73.60;35.08;;;;;;;;;;4976207;28;20458;-64
2022/04/07 05:14:48;;;;;;;67.78;33.30;;;;;;;;;;4975608;28;20058;-63
2022/04/07 05:17:14;;;;;;;62.30;33.03;;;;;;;;;;4975598;28;20390;-64
2022/04/07 05:19:39;;;;;;;63.60;31.33;;;;;;;;;;4975468;28;20034;-64
2022/04/07 05:22:04;;;;;;;58.40;30.27;;;;;;;;;;4975748;28;20031;-64
2022/04/07 05:24:30;;;;;;;52.38;27.77;;;;;;;;;;4975464;28;20027;-64
2022/04/07 05:26:56;;;;;;;49.08;28.02;;;;;;;;;;4975653;28;20062;-64
2022/04/07 05:29:21;;;;;;;51.08;27.08;;;;;;;;;;4958443;28;20141;-63
2022/04/07 05:31:46;;;;;;;51.42;28.27;;;;;;;;;;4958831;28;20042;-63
2022/04/07 05:34:13;;;;;;;54.28;29.02;;;;;;;;;;4975278;28;20446;-63
2022/04/07 05:36:39;;;;;;;45.85;24.52;;;;;;;;;;4975795;28;20058;-64
2022/04/07 05:39:05;;;;;;;40.42;23.75;;;;;;;;;;4975156;28;20054;-63
2022/04/07 05:41:31;;;;;;;33.20;20.00;;;;;;;;;;4975721;28;20030;-62
2022/04/07 05:43:56;;;;;;;33.53;19.60;;;;;;;;;;4975282;28;20097;-63
2022/04/07 05:46:21;;;;;;;33.38;19.05;;;;;;;;;;4957743;28;20023;-63
2022/04/07 05:48:47;;;;;;;24.42;15.25;;;;;;;;;;4975102;28;20418;-63
2022/04/07 05:51:13;;;;;;;23.67;13.15;;;;;;;;;;4975640;28;20034;-63
2022/04/07 05:53:39;;;;;;;13.68;9.35;;;;;;;;;;4975295;28;20029;-63
2022/04/07 05:56:04;;;;;;;14.43;9.40;;;;;;;;;;4974988;28;20027;-63
2022/04/07 05:58:30;;;;;;;14.85;9.43;;;;;;;;;;4975170;28;20019;-64
2022/04/07 06:00:55;;;;;;;16.13;10.70;;;;;;;;;;4974695;28;20031;-63
2022/04/07 06:03:20;;;;;;;19.20;12.20;;;;;;;;;;4974933;28;20411;-65
2022/04/07 06:05:52;;;;;;;19.35;12.70;;;;;;;;;;4975124;28;20401;-64
2022/04/07 06:08:18;;;;;;;22.80;12.52;;;;;;;;;;4974823;28;20141;-65
2022/04/07 06:10:43;;;;;;;18.48;11.93;;;;;;;;;;4974855;28;20047;-64
2022/04/07 06:13:09;;;;;;;13.90;9.98;;;;;;;;;;4975096;28;20505;-65
2022/04/07 06:15:34;;;;;;;14.48;9.93;;;;;;;;;;4974746;28;20031;-63
2022/04/07 06:18:00;;;;;;;11.27;8.13;;;;;;;;;;4974695;28;20069;-65
2022/04/07 06:20:25;;;;;;;9.43;6.78;;;;;;;;;;4974913;28;20034;-64
2022/04/07 06:22:50;;;;;;;10.15;6.15;;;;;;;;;;4974955;28;20027;-64
2022/04/07 06:25:16;;;;;;;12.25;7.65;;;;;;;;;;4974705;28;20447;-64
2022/04/07 06:27:43;;;;;;;12.57;8.02;;;;;;;;;;4957216;28;20093;-64
2022/04/07 06:30:10;;;;;;;6.85;5.65;;;;;;;;;;4974830;28;20034;-63
2022/04/07 06:32:35;;;;;;;11.73;6.95;;;;;;;;;;4974837;28;20192;-64
2022/04/07 06:35:01;;;;;;;11.57;6.70;;;;;;;;;;4974573;28;20026;-65
2022/04/07 06:37:26;;;;;;;11.15;7.03;;;;;;;;;;4974778;28;20022;-65
2022/04/07 06:39:57;;;;;;;8.85;6.15;;;;;;;;;;4974379;28;20022;-65
2022/04/07 06:42:24;;;;;;;9.30;5.72;;;;;;;;;;4974554;28;20438;-63
2022/04/07 06:44:51;;;;;;;7.13;4.47;;;;;;;;;;4974062;28;20023;-65
2022/04/07 06:47:16;;;;;;;5.72;4.43;;;;;;;;;;4974396;28;20026;-64
2022/04/07 06:49:41;;;;;;;6.80;4.47;;;;;;;;;;4973952;28;20447;-65
2022/04/07 06:52:07;;;;;;;6.53;4.63;;;;;;;;;;4973701;28;20045;-64
2022/04/07 06:54:32;;;;;;;5.97;5.05;;;;;;;;;;4973645;28;20562;-65
2022/04/07 06:56:58;;;;;;;4.70;4.05;;;;;;;;;;4972378;28;20058;-65
2022/04/07 06:59:23;;;;;;;5.30;4.05;;;;;;;;;;4955063;28;20474;-64
2022/04/07 07:01:48;;;;;;;4.57;3.55;;;;;;;;;;4972559;28;20030;-64
2022/04/07 07:04:13;;;;;;;4.00;3.30;;;;;;;;;;4972413;28;20110;-63
2022/04/07 07:06:39;;;;;;;6.88;3.53;;;;;;;;;;4955228;28;20475;-64
2022/04/07 07:09:04;;;;;;;4.18;3.03;;;;;;;;;;4972216;28;20058;-64
2022/04/07 07:11:30;;;;;;;6.47;3.40;;;;;;;;;;4972486;28;20129;-64
2022/04/07 07:13:55;;;;;;;3.40;3.10;;;;;;;;;;4975339;28;20031;-64
2022/04/07 07:16:20;;;;;;;3.13;2.83;;;;;;;;;;4975769;28;20027;-65
2022/04/07 07:18:45;;;;;;;5.55;2.70;;;;;;;;;;4975570;28;20483;-65
2022/04/07 07:21:11;;;;;;;5.53;2.58;;;;;;;;;;4976225;28;20058;-65
2022/04/07 07:23:36;;;;;;;3.45;2.22;;;;;;;;;;4977945;28;20019;-65
2022/04/07 07:26:02;;;;;;;3.13;2.80;;;;;;;;;;4977702;28;20126;-65
2022/04/07 07:28:27;;;;;;;3.95;2.67;;;;;;;;;;4976992;28;20113;-63
2022/04/07 07:30:52;;;;;;;4.28;2.63;;;;;;;;;;4977710;28;20031;-65
2022/04/07 07:33:18;;;;;;;5.30;3.15;;;;;;;;;;4978010;28;20464;-65
2022/04/07 07:35:45;;;;;;;3.75;2.90;;;;;;;;;;4977779;28;20434;-65
2022/04/07 07:38:10;;;;;;;4.85;2.83;;;;;;;;;;4977436;28;20389;-66
2022/04/07 07:40:36;;;;;;;2.92;2.50;;;;;;;;;;4977319;28;20023;-64
2022/04/07 07:43:02;;;;;;;4.38;2.60;;;;;;;;;;4977609;28;20022;-64
2022/04/07 07:45:28;;;;;;;3.60;2.80;;;;;;;;;;4977560;28;20034;-65
2022/04/07 07:47:53;;;;;;;3.15;2.63;;;;;;;;;;4977554;28;20102;-64
2022/04/07 07:50:19;;;;;;;2.92;2.38;;;;;;;;;;4977355;28;20109;-64
2022/04/07 07:52:44;;;;;;;2.80;2.35;;;;;;;;;;4977113;28;20463;-64
2022/04/07 07:55:10;;;;;;;3.42;2.22;;;;;;;;;;4977125;28;20122;-64
2022/04/07 07:57:35;;;;;;;2.38;2.13;;;;;;;;;;4960374;28;20030;-64
2022/04/07 08:00:00;;;;;;;6.43;2.72;;;;;;;;;;4976970;28;20490;-63
2022/04/07 08:02:26;;;;;;;4.07;2.55;;;;;;;;;;4977432;28;20030;-64
2022/04/07 08:04:52;;;;;;;2.30;1.42;;;;;;;;;;4977252;28;20031;-63
2022/04/07 08:07:17;;;;;;;2.40;2.20;;;;;;;;;;4976897;28;20027;-64
2022/04/07 08:09:43;;;;;;;1.27;1.08;;;;;;;;;;4976852;28;20110;-63
2022/04/07 08:12:08;;;;;;;3.20;2.70;;;;;;;;;;4977348;28;20455;-65
2022/04/07 08:14:34;;;;;;;1.67;1.13;;;;;;;;;;4976801;28;20035;-64
2022/04/07 08:17:00;;;;;;;2.88;1.95;;;;;;;;;;4976723;28;20018;-64
2022/04/07 08:19:26;;;;;;;2.10;1.98;;;;;;;;;;4976902;28;20088;-65
2022/04/07 08:21:51;;;;;;;3.40;2.10;;;;;;;;;;4976672;28;20019;-63
2022/04/07 08:24:19;;;;;;;1.27;1.17;;;;;;;;;;4959278;28;20046;-63
2022/04/07 08:26:50;;;;;;;1.30;1.10;;;;;;;;;;4976882;28;20077;-64
2022/04/07 08:29:15;;;;;;;3.42;2.10;;;;;;;;;;4976760;28;20495;-64
2022/04/07 08:31:40;;;;;;;4.50;1.80;;;;;;;;;;4976490;28;20110;-62
2022/04/07 08:34:06;;;;;;;1.63;1.50;;;;;;;;;;4976666;28;20041;-65
2022/04/07 08:36:31;;;;;;;2.78;1.83;;;;;;;;;;4976914;28;20071;-65
2022/04/07 08:38:57;;;;;;;2.00;1.30;;;;;;;;;;4976211;28;20030;-63
2022/04/07 08:41:23;;;;;;;2.45;1.50;;;;;;;;;;4976249;28;20022;-64
2022/04/07 08:43:48;;;;;;;0.80;0.75;;;;;;;;;;4976175;28;20031;-63
2022/04/07 08:46:14;;;;;;;1.20;1.10;;;;;;;;;;4958934;28;20089;-65
2022/04/07 08:48:42;;;;;;;1.98;1.20;;;;;;;;;;4980260;23;20853;-63
2022/04/07 08:51:08;;;;;;;1.60;1.00;;;;;;;;;;4957081;29;20103;-63
2022/04/07 08:53:34;;;;;;;2.78;1.48;;;;;;;;;;4957073;28;20027;-63
2022/04/07 08:56:02;;;;;;;2.13;1.60;;;;;;;;;;4956713;29;20042;-64
2022/04/07 08:58:28;;;;;;;1.88;1.30;;;;;;;;;;4956942;28;20030;-69
2022/04/07 09:00:53;;;;;;;1.33;1.20;;;;;;;;;;4956858;28;20032;-70
2022/04/07 09:03:18;;;;;;;1.55;1.35;;;;;;;;;;4956624;28;20015;-69
2022/04/07 09:05:54;;;;;;;1.27;0.90;;;;;;;;;;4956812;29;20028;-69
2022/04/07 09:08:20;;;;;;;2.05;0.70;;;;;;;;;;4956460;29;20027;-70
2022/04/07 09:10:52;;;;;;;1.27;1.17;;;;;;;;;;4955297;29;20027;-69
2022/04/07 09:13:18;;;;;;;1.15;1.05;;;;;;;;;;4956647;29;20094;-68
2022/04/07 09:15:44;;;;;;;1.30;1.20;;;;;;;;;;4956662;28;20067;-68
2022/04/07 09:18:10;;;;;;;1.40;1.30;;;;;;;;;;4956793;28;20046;-68
2022/04/07 09:20:41;;;;;;;1.38;1.20;;;;;;;;;;4957009;28;20356;-69
2022/04/07 09:23:10;;;;;;;1.35;1.17;;;;;;;;;;4938601;29;20539;-69
2022/04/07 09:25:35;;;;;;;1.05;0.95;;;;;;;;;;4955758;28;20019;-67
2022/04/07 09:28:01;;;;;;;1.23;1.10;;;;;;;;;;4956071;28;20464;-68
2022/04/07 09:30:35;;;;;;;1.50;1.27;;;;;;;;;;4955665;29;20537;-67
2022/04/07 09:33:02;;;;;;;0.63;0.63;;;;;;;;;;4955680;29;20035;-68
2022/04/07 09:35:27;;;;;;;0.70;0.68;;;;;;;;;;4954097;28;20035;-68
2022/04/07 09:38:00;;;;;;;2.03;1.00;;;;;;;;;;4955783;29;20538;-67
2022/04/07 09:40:26;;;;;;;1.02;0.93;;;;;;;;;;4956409;29;20035;-68
2022/04/07 09:43:00;;;;;;;0.90;0.80;;;;;;;;;;4955928;28;20045;-68
2022/04/07 09:45:25;;;;;;;1.98;0.80;;;;;;;;;;4956177;28;20039;-69
2022/04/07 09:47:52;;;;;;;1.83;1.10;;;;;;;;;;4955870;28;20032;-67
2022/04/07 09:50:18;;;;;;;1.67;0.75;;;;;;;;;;4955556;29;20518;-68
2022/04/07 09:52:54;;;;;;;1.20;0.70;;;;;;;;;;4956048;29;20031;-68
2022/04/07 09:55:20;;;;;;;0.60;0.60;;;;;;;;;;4955988;29;20506;-69
2022/04/07 09:57:45;;;;;;;3.80;0.73;;;;;;;;;;4955732;28;20118;-68
2022/04/07 10:00:10;;;;;;;0.50;0.50;;;;;;;;;;4955853;29;20067;-68
2022/04/07 10:02:37;;;;;;;3.80;0.82;;;;;;;;;;4955981;28;20039;-69
2022/04/07 10:05:03;;;;;;;1.95;0.70;;;;;;;;;;4955908;28;20031;-68
2022/04/07 10:07:28;;;;;;;0.50;0.50;;;;;;;;;;4955615;28;20403;-69
2022/04/07 10:09:54;;;;;;;1.70;0.90;;;;;;;;;;4955249;29;20042;-68
2022/04/07 10:12:20;;;;;;;5.75;1.00;;;;;;;;;;4955815;28;20027;-68
2022/04/07 10:14:46;;;;;;;0.40;0.40;;;;;;;;;;4955507;29;20027;-68
2022/04/07 10:17:13;;;;;;;1.67;0.85;;;;;;;;;;4955784;28;20031;-68
2022/04/07 10:19:48;;;;;;;2.78;0.82;;;;;;;;;;4955388;29;20032;-68
2022/04/07 10:22:16;;;;;;;2.15;1.10;;;;;;;;;;4955417;29;20035;-68
2022/04/07 10:24:45;;;;;;;0.82;0.80;;;;;;;;;;4955971;28;20448;-68
2022/04/07 10:27:12;;;;;;;0.80;0.80;;;;;;;;;;4955468;28;20487;-67
2022/04/07 10:29:38;;;;;;;0.93;0.73;;;;;;;;;;4955668;28;20379;-68
2022/04/07 10:32:12;;;;;;;4.50;0.82;;;;;;;;;;4955914;29;20035;-68
2022/04/07 10:34:56;;;;;;;1.98;0.65;;;;;;;;;;4954754;29;20046;-68
2022/04/07 10:39:51;;;;;;;2.05;0.55;;;;;;;;;;4979038;23;20059;-61
2022/04/07 10:42:17;;;;;;;1.23;0.80;;;;;;;;;;4974827;28;20038;-62
2022/04/07 10:44:42;;;;;;;6.78;0.93;;;;;;;;;;4974862;28;20029;-62
2022/04/07 10:47:08;;;;;;;1.77;0.75;;;;;;;;;;4974905;28;20093;-62
2022/04/07 10:49:34;;;;;;;0.57;0.50;;;;;;;;;;4978938;28;20027;-64
2022/04/07 10:52:02;;;;;;;8.20;1.00;;;;;;;;;;4978840;28;20023;-62
2022/04/07 10:54:30;;;;;;;0.82;0.63;;;;;;;;;;4945269;28;20106;-63
2022/04/07 10:56:56;;;;;;;2.20;0.50;;;;;;;;;;4961503;28;20039;-63
2022/04/07 10:59:22;;;;;;;0.25;0.25;;;;;;;;;;4960770;28;20026;-64
2022/04/07 11:01:47;;;;;;;8.60;1.05;;;;;;;;;;4978394;28;20124;-62
2022/04/07 11:07:02;;;;;;;2.28;0.50;;;;;;;;;;4978620;28;20430;-62
2022/04/07 11:09:49;;;;;;;3.08;0.98;;;;;;;;;;4977964;28;20062;-62
2022/04/07 11:12:25;;;;;;;3.80;0.70;;;;;;;;;;4978507;28;20090;-64
2022/04/07 11:14:52;;;;;;;0.73;0.43;;;;;;;;;;4960523;28;20031;-62
2022/04/07 11:17:41;;;;;;;2.22;0.68;;;;;;;;;;4978177;28;20029;-64
2022/04/07 11:20:13;;;;;;;1.98;0.68;;;;;;;;;;4967602;28;20054;-61
2022/04/07 11:22:47;;;;;;;0.40;0.40;;;;;;;;;;4977992;28;20113;-62
2022/04/07 11:25:23;;;;;;;0.82;0.60;;;;;;;;;;4978263;28;20027;-62
2022/04/07 11:28:11;;;;;;;0.77;0.70;;;;;;;;;;4960332;28;20056;-62
2022/04/07 11:30:40;;;;;;;1.63;0.73;;;;;;;;;;4960229;28;20041;-61
2022/04/07 11:33:28;;;;;;;2.25;0.80;;;;;;;;;;4977587;28;20073;-62
2022/04/07 11:36:00;;;;;;;1.60;0.70;;;;;;;;;;4978067;28;20057;-61
2022/04/07 11:38:26;;;;;;;1.92;1.08;;;;;;;;;;4977555;28;20046;-61
2022/04/07 11:40:57;;;;;;;0.38;0.38;;;;;;;;;;4977669;28;20039;-62
2022/04/07 11:43:23;;;;;;;2.28;0.63;;;;;;;;;;4977679;28;20029;-61
2022/04/07 11:45:48;;;;;;;1.35;0.70;;;;;;;;;;4977583;28;20019;-62
2022/04/07 11:48:14;;;;;;;0.47;0.47;;;;;;;;;;4977596;28;20057;-63
2022/04/07 11:50:40;;;;;;;0.47;0.47;;;;;;;;;;4959882;28;20027;-62
2022/04/07 11:53:05;;;;;;;6.43;1.00;;;;;;;;;;4977217;28;20745;-62
2022/04/07 11:55:31;;;;;;;2.83;1.02;;;;;;;;;;4977438;28;20023;-62
2022/04/07 11:57:59;;;;;;;4.22;0.63;;;;;;;;;;4959382;28;20055;-61
2022/04/07 12:00:31;;;;;;;0.95;0.63;;;;;;;;;;4976986;28;20048;-61
2022/04/07 12:02:58;;;;;;;0.47;0.47;;;;;;;;;;4960345;28;20185;-61
2022/04/07 12:05:23;;;;;;;4.00;0.70;;;;;;;;;;4977016;28;20015;-61
2022/04/07 12:07:48;;;;;;;3.55;0.80;;;;;;;;;;4959607;28;20030;-62
2022/04/07 12:10:14;;;;;;;2.33;0.70;;;;;;;;;;4976902;28;20464;-62
2022/04/07 12:12:41;;;;;;;5.80;1.08;;;;;;;;;;4976834;28;20043;-62
2022/04/07 12:15:06;;;;;;;15.00;1.50;;;;;;;;;;4977107;28;20077;-63
2022/04/07 12:17:35;;;;;;;0.77;0.60;;;;;;;;;;4977038;28;20030;-62
2022/04/07 12:20:00;;;;;;;2.78;1.00;;;;;;;;;;4976890;28;20025;-62
2022/04/07 12:22:30;;;;;;;0.73;0.32;;;;;;;;;;4976712;28;20023;-63
2022/04/07 12:25:03;;;;;;;7.13;1.15;;;;;;;;;;4959288;28;20038;-63
2022/04/07 12:27:30;;;;;;;4.95;1.20;;;;;;;;;;4977103;28;20039;-63
2022/04/07 12:29:59;;;;;;;2.40;0.95;;;;;;;;;;4976550;28;20015;-63
2022/04/07 12:32:24;;;;;;;3.72;0.77;;;;;;;;;;4976806;28;20030;-63
2022/04/07 12:34:49;;;;;;;4.10;0.68;;;;;;;;;;4976709;28;20172;-61
2022/04/07 12:37:34;;;;;;;9.52;1.73;;;;;;;;;;4976419;28;20042;-62
2022/04/07 12:40:00;;;;;;;15.07;1.35;;;;;;;;;;4958790;28;20415;-62
2022/04/07 12:42:25;;;;;;;2.88;0.85;;;;;;;;;;4976603;28;20031;-61
2022/04/07 12:45:03;;;;;;;1.42;0.75;;;;;;;;;;4976531;28;20173;-62
2022/04/07 12:47:28;;;;;;;2.05;0.40;;;;;;;;;;4976242;28;20455;-62
2022/04/07 12:49:55;;;;;;;0.63;0.63;;;;;;;;;;4976195;28;20022;-61
2022/04/07 12:52:21;;;;;;;2.75;1.00;;;;;;;;;;4976159;28;20387;-62
2022/04/07 12:55:04;;;;;;;2.95;0.95;;;;;;;;;;4976589;28;20027;-64
2022/04/07 12:57:30;;;;;;;3.90;0.65;;;;;;;;;;4976261;28;20035;-64
2022/04/07 12:59:57;;;;;;;1.25;0.52;;;;;;;;;;4976046;28;20023;-62
2022/04/07 13:02:23;;;;;;;2.42;0.73;;;;;;;;;;4976207;28;20081;-62
2022/04/07 13:04:53;;;;;;;0.47;0.32;;;;;;;;;;4976175;28;20109;-65
2022/04/07 13:07:19;;;;;;;0.50;0.50;;;;;;;;;;4975867;28;20042;-64
2022/04/07 13:09:44;;;;;;;1.10;0.82;;;;;;;;;;4975468;28;20031;-62
2022/04/07 13:12:10;;;;;;;0.88;0.30;;;;;;;;;;4975606;28;20105;-64
2022/04/07 13:14:36;;;;;;;0.68;0.68;;;;;;;;;;4975735;28;20383;-64
2022/04/07 13:17:02;;;;;;;0.20;0.20;;;;;;;;;;4975957;28;20038;-64
2022/04/07 13:19:27;;;;;;;1.05;0.68;;;;;;;;;;4975507;28;20022;-62
2022/04/07 13:21:53;;;;;;;0.40;0.40;;;;;;;;;;4958267;28;20029;-69
2022/04/07 13:24:20;;;;;;;0.57;0.43;;;;;;;;;;4973472;23;20558;-70
2022/04/07 13:26:47;;;;;;;1.33;1.20;;;;;;;;;;4956738;29;20107;-71
2022/04/07 13:29:13;;;;;;;1.50;0.95;;;;;;;;;;4956099;29;20023;-69
2022/04/07 13:31:38;;;;;;;2.55;1.30;;;;;;;;;;4956071;29;20117;-69
2022/04/07 13:34:05;;;;;;;1.55;1.00;;;;;;;;;;4938879;29;20108;-70
2022/04/07 13:36:30;;;;;;;1.13;1.13;;;;;;;;;;4956006;29;20038;-70
2022/04/07 13:38:56;;;;;;;1.52;1.42;;;;;;;;;;4938644;29;20467;-69
2022/04/07 13:41:21;;;;;;;1.30;1.20;;;;;;;;;;4956141;29;20447;-70
2022/04/07 13:43:46;;;;;;;5.97;1.92;;;;;;;;;;4938815;29;20460;-69
2022/04/07 13:46:13;;;;;;;2.92;2.72;;;;;;;;;;4956046;29;20027;-62
2022/04/07 13:48:38;;;;;;;6.38;4.13;;;;;;;;;;4938827;29;20043;-64
2022/04/07 13:51:03;;;;;;;15.10;8.70;;;;;;;;;;4955730;29;20070;-63
2022/04/07 13:53:29;;;;;;;8.57;5.28;;;;;;;;;;4955724;29;20115;-63
2022/04/07 13:55:54;;;;;;;27.70;14.10;;;;;;;;;;4938520;29;20395;-63
2022/04/07 13:58:19;;;;;;;36.33;19.98;;;;;;;;;;4938563;29;20106;-62
2022/04/07 14:00:45;;;;;;;29.80;19.15;;;;;;;;;;4955769;29;20070;-63
2022/04/07 14:03:11;;;;;;;44.25;24.33;;;;;;;;;;4955607;29;20479;-65
2022/04/07 14:05:36;;;;;;;29.48;15.63;;;;;;;;;;4955891;29;20110;-64
2022/04/07 14:08:01;;;;;;;38.03;20.58;;;;;;;;;;4955878;29;20019;-63
2022/04/07 14:10:27;;;;;;;57.17;31.77;;;;;;;;;;4938369;29;20035;-64
2022/04/07 14:12:53;;;;;;;57.22;30.20;;;;;;;;;;4955545;29;20032;-64
2022/04/07 14:15:19;;;;;;;53.13;30.23;;;;;;;;;;4937985;29;20107;-70
2022/04/07 14:17:45;;;;;;;54.67;29.60;;;;;;;;;;4938314;29;20027;-70
2022/04/07 14:20:12;;;;;;;44.95;24.02;;;;;;;;;;4955665;29;20499;-70
2022/04/07 14:22:37;;;;;;;57.85;30.83;;;;;;;;;;4960661;28;20455;-70
2022/04/07 14:25:03;;;;;;;55.63;30.88;;;;;;;;;;4961680;29;20051;-70
2022/04/07 14:27:28;;;;;;;43.85;29.02;;;;;;;;;;4962367;29;20036;-70
2022/04/07 14:29:54;;;;;;;60.58;33.67;;;;;;;;;;4961829;28;20035;-65
2022/04/07 14:32:19;;;;;;;47.10;27.30;;;;;;;;;;4962382;29;20023;-66